Time;durP1;ratioP1;P1;durP2;ratioP2;P2;SDS_P1;SDS_P2;PMS_P1;PMS_P2;Temp;Humidity;BMP_temperature;BMP_pressure;BME280_temperature;BME280_humidity;BME280_pressure;Samples;Min_cycle;Max_cycle;Signal;HPM_P1;HPM_P2
2022/11/13 00:00:36;;;;;;;46.75;23.00;;;3.60;99.90;;;2.30;100.00;98350.84;5032551;28;20409;-75
2022/11/13 00:03:02;;;;;;;37.83;21.20;;;3.70;99.90;;;2.26;100.00;98351.34;5031752;28;20423;-76
2022/11/13 00:05:28;;;;;;;50.40;23.88;;;3.60;99.90;;;2.23;100.00;98336.84;5032642;28;20411;-75
2022/11/13 00:07:54;;;;;;;42.70;23.00;;;3.60;99.90;;;2.20;100.00;98339.00;5032421;28;20410;-75
2022/11/13 00:10:21;;;;;;;44.50;23.20;;;3.60;99.90;;;2.18;100.00;98335.75;5032585;28;20917;-75
2022/11/13 00:12:48;;;;;;;46.93;24.97;;;3.60;99.90;;;2.18;100.00;98340.97;5031530;28;20416;-75
2022/11/13 00:15:14;;;;;;;41.28;22.83;;;3.60;99.90;;;2.16;100.00;98332.50;5032450;28;20879;-75
2022/11/13 00:17:40;;;;;;;45.77;23.63;;;3.50;99.90;;;2.14;100.00;98329.25;5032424;28;20462;-75
2022/11/13 00:20:07;;;;;;;46.08;24.52;;;3.50;99.90;;;2.11;100.00;98326.97;5046788;28;20405;-75
2022/11/13 00:22:33;;;;;;;49.08;24.38;;;3.50;99.90;;;2.12;100.00;98323.38;5052242;28;20444;-75
2022/11/13 00:24:58;;;;;;;46.03;24.38;;;3.50;99.90;;;2.09;100.00;98315.91;5051197;28;20409;-75
2022/11/13 00:27:28;;;;;;;48.00;24.30;;;3.50;99.90;;;2.07;100.00;98323.91;5052246;28;20409;-75
2022/11/13 00:29:54;;;;;;;45.42;24.40;;;3.50;99.90;;;2.06;100.00;98321.47;5051853;28;20436;-76
2022/11/13 00:32:20;;;;;;;44.73;23.30;;;3.50;99.90;;;2.04;100.00;98328.66;5051516;28;20413;-75
2022/11/13 00:34:46;;;;;;;45.03;23.20;;;3.40;99.90;;;2.05;100.00;98317.22;5051250;28;20511;-75
2022/11/13 00:37:11;;;;;;;40.72;22.33;;;3.40;99.90;;;2.01;100.00;98322.00;5051994;28;20494;-75
2022/11/13 00:39:37;;;;;;;49.20;24.67;;;3.40;99.90;;;2.00;100.00;98317.75;5051931;28;20401;-75
2022/11/13 00:42:03;;;;;;;43.72;22.02;;;3.40;99.90;;;1.98;100.00;98309.28;5051991;28;20496;-75
2022/11/13 00:44:31;;;;;;;41.92;22.80;;;3.40;99.90;;;1.97;100.00;98318.09;5051118;28;20393;-75
2022/11/13 00:46:56;;;;;;;43.03;21.67;;;3.40;99.90;;;1.94;100.00;98311.44;5051626;28;20417;-75
2022/11/13 00:49:22;;;;;;;43.57;22.67;;;3.40;99.90;;;1.94;100.00;98319.28;5050422;28;20432;-75
2022/11/13 00:51:48;;;;;;;43.75;23.05;;;3.40;99.90;;;1.94;100.00;98308.00;5051771;28;20863;-75
2022/11/13 00:54:14;;;;;;;40.35;20.85;;;3.30;99.90;;;1.91;100.00;98295.28;5050646;28;20413;-75
2022/11/13 00:56:40;;;;;;;42.03;21.45;;;3.30;99.90;;;1.89;100.00;98295.47;5050322;28;20453;-75
2022/11/13 00:59:06;;;;;;;36.95;20.88;;;3.30;99.90;;;1.87;100.00;98288.81;5051450;28;20414;-76
2022/11/13 01:01:33;;;;;;;34.90;19.38;;;3.30;99.90;;;1.85;100.00;98286.38;5051598;28;20910;-75
2022/11/13 01:03:59;;;;;;;38.50;20.40;;;3.20;99.90;;;1.85;100.00;98282.94;5050505;28;20409;-75
2022/11/13 01:06:26;;;;;;;40.88;21.35;;;3.20;99.90;;;1.84;100.00;98289.13;5051186;28;20776;-75
2022/11/13 01:08:54;;;;;;;42.70;22.90;;;3.20;99.90;;;1.82;100.00;98278.06;5051530;28;20405;-75
2022/11/13 01:11:24;;;;;;;44.95;23.45;;;3.20;99.90;;;1.79;100.00;98284.44;5051438;28;20955;-75
2022/11/13 01:13:51;;;;;;;43.50;23.00;;;3.20;99.90;;;1.76;100.00;98279.56;5050432;28;20398;-75
2022/11/13 01:16:20;;;;;;;39.47;21.83;;;3.20;99.90;;;1.76;100.00;98291.81;5051104;28;20412;-76
2022/11/13 01:18:48;;;;;;;52.13;26.27;;;3.10;99.90;;;1.73;100.00;98277.28;5051018;28;20480;-76
2022/11/13 01:21:17;;;;;;;51.50;26.40;;;3.20;99.90;;;1.73;100.00;98281.72;5034810;28;20403;-76
2022/11/13 01:23:44;;;;;;;40.67;23.20;;;3.10;99.90;;;1.72;100.00;98280.09;5050045;28;20402;-76
2022/11/13 01:26:14;;;;;;;50.67;26.05;;;3.10;99.90;;;1.72;100.00;98280.09;5050911;28;20863;-75
2022/11/13 01:28:42;;;;;;;46.58;24.73;;;3.10;99.90;;;1.70;100.00;98277.66;5050943;28;20404;-75
2022/11/13 01:31:10;;;;;;;49.13;25.67;;;3.10;99.90;;;1.68;100.00;98276.19;5051119;28;20409;-75
2022/11/13 01:33:36;;;;;;;51.88;26.50;;;3.10;99.90;;;1.66;100.00;98268.53;5049944;28;20500;-76
2022/11/13 01:36:07;;;;;;;50.92;24.42;;;3.10;99.90;;;1.65;100.00;98268.72;5050687;28;20413;-75
2022/11/13 01:38:34;;;;;;;50.25;25.73;;;3.00;99.90;;;1.65;100.00;98261.72;5050792;28;20883;-76
2022/11/13 01:41:00;;;;;;;48.85;24.67;;;3.00;99.90;;;1.62;100.00;98259.44;5050727;28;20413;-75
2022/11/13 01:43:31;;;;;;;52.90;27.40;;;3.00;99.90;;;1.64;100.00;98254.06;5049769;28;20890;-75
2022/11/13 01:46:16;;;;;;;47.92;25.45;;;3.00;99.90;;;1.61;100.00;98255.19;5050418;28;20401;-75
2022/11/13 01:48:48;;;;;;;49.60;25.35;;;3.00;99.90;;;1.58;100.00;98252.13;5050608;28;20390;-75
2022/11/13 01:51:24;;;;;;;46.33;25.13;;;3.00;99.90;;;1.54;100.00;98249.88;5050858;28;20483;-75
2022/11/13 01:53:51;;;;;;;44.50;23.23;;;2.90;99.90;;;1.54;100.00;98247.25;5049495;28;20432;-76
2022/11/13 01:56:18;;;;;;;46.13;24.02;;;2.90;99.90;;;1.51;100.00;98250.19;5050371;28;20400;-75
2022/11/13 01:58:51;;;;;;;40.25;22.50;;;2.90;99.90;;;1.50;100.00;98243.34;5050446;28;20459;-75
2022/11/13 02:01:17;;;;;;;47.50;24.50;;;2.90;99.90;;;1.48;100.00;98237.50;5050358;28;20404;-75
2022/11/13 02:03:43;;;;;;;42.42;22.88;;;2.90;99.90;;;1.49;100.00;98238.31;5049464;28;20405;-75
2022/11/13 02:06:10;;;;;;;38.57;20.77;;;2.90;99.90;;;1.45;100.00;98229.19;5067938;22;20468;-72
2022/11/13 02:08:37;;;;;;;38.40;21.92;;;2.90;99.90;;;1.44;100.00;98230.19;5109340;28;20885;-73
2022/11/13 02:11:03;;;;;;;36.90;20.63;;;2.80;99.90;;;1.44;100.00;98220.56;5109212;28;20397;-73
2022/11/13 02:13:29;;;;;;;48.55;24.58;;;2.80;99.90;;;1.46;100.00;98233.44;5109701;28;20400;-73
2022/11/13 02:15:56;;;;;;;48.23;24.53;;;2.90;99.90;;;1.45;100.00;98218.78;5110451;28;20922;-72
2022/11/13 02:18:22;;;;;;;50.17;24.73;;;2.90;99.90;;;1.43;100.00;98216.31;5109727;28;20487;-73
2022/11/13 02:20:58;;;;;;;46.50;23.63;;;2.80;99.90;;;1.39;100.00;98211.63;5107984;28;20473;-73
2022/11/13 02:23:33;;;;;;;39.60;22.58;;;2.80;99.90;;;1.39;100.00;98207.25;5109548;28;20389;-72
2022/11/13 02:26:02;;;;;;;46.95;23.98;;;2.80;99.90;;;1.37;100.00;98203.97;5110384;28;20482;-72
2022/11/13 02:28:28;;;;;;;43.88;22.95;;;2.80;99.90;;;1.36;100.00;98199.75;5110419;28;20395;-73
2022/11/13 02:30:54;;;;;;;39.20;21.80;;;2.80;99.90;;;1.35;100.00;98197.34;5110455;28;20388;-72
2022/11/13 02:33:23;;;;;;;46.17;24.30;;;2.70;99.90;;;1.35;100.00;98192.94;5109288;28;20400;-73
2022/11/13 02:35:49;;;;;;;46.00;23.00;;;2.80;99.90;;;1.32;100.00;98192.44;5110057;28;20404;-73
2022/11/13 02:38:15;;;;;;;47.67;24.00;;;2.70;99.90;;;1.30;100.00;98190.00;5110291;28;20939;-73
2022/11/13 02:40:41;;;;;;;40.92;21.27;;;2.70;99.90;;;1.27;100.00;98189.56;5110308;28;20408;-73
2022/11/13 02:43:08;;;;;;;46.78;23.58;;;2.70;99.90;;;1.26;100.00;98183.53;5109520;28;20392;-73
2022/11/13 02:45:37;;;;;;;54.20;26.33;;;2.70;99.90;;;1.26;100.00;98182.72;5110172;28;20465;-73
2022/11/13 02:48:04;;;;;;;51.45;25.23;;;2.70;99.90;;;1.23;100.00;98185.66;5110521;28;20605;-72
2022/11/13 02:50:30;;;;;;;52.03;25.33;;;2.60;99.90;;;1.22;100.00;98187.44;5126048;27;20449;-72
2022/11/13 02:52:56;;;;;;;57.53;27.43;;;2.70;99.90;;;1.21;100.00;98185.81;5109356;28;20480;-73
2022/11/13 02:55:23;;;;;;;49.00;25.60;;;2.60;99.90;;;1.18;100.00;98188.78;5110189;28;20444;-73
2022/11/13 02:57:49;;;;;;;48.17;24.98;;;2.60;99.90;;;1.16;100.00;98175.91;5109872;28;20815;-72
2022/11/13 03:00:17;;;;;;;50.50;25.58;;;2.60;99.90;;;1.12;100.00;98174.66;5109900;28;20412;-73
2022/11/13 03:02:43;;;;;;;53.07;25.77;;;2.50;99.90;;;1.12;100.00;98182.47;5109682;28;20400;-72
2022/11/13 03:05:09;;;;;;;51.97;25.67;;;2.60;99.90;;;1.10;100.00;98181.00;5109841;28;20400;-74
2022/11/13 03:07:35;;;;;;;46.97;23.27;;;2.50;99.90;;;1.06;100.00;98177.09;5110039;28;20400;-71
2022/11/13 03:10:01;;;;;;;47.70;23.83;;;2.50;99.90;;;1.06;100.00;98170.09;5109778;28;20406;-71
2022/11/13 03:12:27;;;;;;;48.03;24.47;;;2.50;99.90;;;1.04;100.00;98169.47;5109887;28;20407;-71
2022/11/13 03:14:53;;;;;;;44.05;23.40;;;2.50;99.90;;;1.01;100.00;98169.00;5109096;28;20459;-71
2022/11/13 03:17:20;;;;;;;53.07;25.43;;;2.50;99.90;;;1.01;100.00;98169.81;5109980;28;20537;-74
2022/11/13 03:19:46;;;;;;;50.47;23.90;;;2.40;99.90;;;1.00;100.00;98172.56;5109776;28;20981;-72
2022/11/13 03:22:12;;;;;;;49.63;23.83;;;2.40;99.90;;;0.99;100.00;98166.56;5110127;28;20397;-73
2022/11/13 03:24:38;;;;;;;51.70;25.90;;;2.40;99.90;;;1.00;100.00;98167.38;5108831;28;20894;-73
2022/11/13 03:27:04;;;;;;;44.53;23.83;;;2.40;99.90;;;0.94;100.00;98168.88;5109930;28;20483;-73
2022/11/13 03:29:30;;;;;;;55.75;26.10;;;2.40;99.90;;;0.94;100.00;98163.66;5109934;28;20483;-74
2022/11/13 03:31:56;;;;;;;43.65;22.75;;;2.40;99.90;;;0.91;100.00;98161.38;5112513;28;20788;-73
2022/11/13 03:34:23;;;;;;;44.17;23.45;;;2.30;99.90;;;0.87;100.00;98165.31;5113155;28;20400;-73
2022/11/13 03:36:49;;;;;;;45.73;22.43;;;2.30;99.90;;;0.85;100.00;98169.88;5113319;28;20396;-74
2022/11/13 03:39:15;;;;;;;43.33;22.23;;;2.30;99.90;;;0.81;100.00;98160.81;5113603;28;20453;-72
2022/11/13 03:41:41;;;;;;;47.83;23.83;;;2.30;99.90;;;0.81;100.00;98162.59;5129613;27;20449;-73
2022/11/13 03:44:07;;;;;;;51.58;24.17;;;2.30;99.90;;;0.81;100.00;98165.19;5112987;28;20804;-73
2022/11/13 03:46:33;;;;;;;53.33;25.75;;;2.30;99.90;;;0.81;100.00;98165.19;5113413;28;20857;-73
2022/11/13 03:48:58;;;;;;;43.17;22.27;;;2.30;99.90;;;0.75;100.00;98175.28;5113518;28;20389;-74
2022/11/13 03:51:26;;;;;;;45.38;24.63;;;2.20;99.90;;;0.72;100.00;98169.63;5113566;28;20881;-73
2022/11/13 03:53:52;;;;;;;54.05;26.08;;;2.20;99.90;;;0.76;100.00;98165.69;5112579;28;20406;-73
2022/11/13 03:56:18;;;;;;;50.95;24.52;;;2.20;99.90;;;0.70;100.00;98168.97;5113254;28;20396;-73
2022/11/13 03:58:44;;;;;;;43.97;22.10;;;2.10;99.90;;;0.66;100.00;98159.88;5113535;28;20485;-73
2022/11/13 04:01:10;;;;;;;46.33;23.65;;;2.10;99.90;;;0.63;100.00;98161.03;5113239;28;20407;-73
2022/11/13 04:03:36;;;;;;;46.22;23.50;;;2.10;99.90;;;0.61;100.00;98162.97;5112465;28;20495;-73
2022/11/13 04:06:02;;;;;;;46.65;22.40;;;2.10;99.90;;;0.58;100.00;98167.72;5112627;28;20439;-74
2022/11/13 04:08:29;;;;;;;38.85;21.08;;;2.00;99.90;;;0.55;100.00;98162.84;5113320;28;20461;-73
2022/11/13 04:11:05;;;;;;;46.00;22.75;;;2.00;99.90;;;0.53;100.00;98164.81;5128918;27;20411;-73
2022/11/13 04:13:32;;;;;;;36.83;21.88;;;2.00;99.90;;;0.54;100.00;98150.81;5112178;28;20392;-73
2022/11/13 04:15:58;;;;;;;47.60;24.48;;;1.90;99.90;;;0.53;100.00;98157.81;5112899;28;20401;-74
2022/11/13 04:18:24;;;;;;;42.17;22.95;;;1.90;99.90;;;0.51;100.00;98158.97;5128946;27;20416;-74
2022/11/13 04:20:50;;;;;;;48.90;25.02;;;2.00;99.90;;;0.51;100.00;98153.75;5113056;28;20419;-73
2022/11/13 04:23:16;;;;;;;40.67;22.73;;;2.00;99.90;;;0.49;100.00;98153.91;5112101;28;20404;-74
2022/11/13 04:25:44;;;;;;;46.58;24.67;;;2.00;99.90;;;0.46;100.00;98148.22;5112896;28;20834;-73
2022/11/13 04:28:10;;;;;;;38.25;22.70;;;1.90;99.90;;;0.44;100.00;98137.19;5112759;28;20415;-73
2022/11/13 04:30:36;;;;;;;54.47;25.75;;;1.90;99.90;;;0.39;100.00;98135.88;5112778;28;20393;-74
2022/11/13 04:33:02;;;;;;;44.30;24.33;;;1.90;99.90;;;0.36;100.00;98131.03;5111994;28;20877;-74
2022/11/13 04:35:28;;;;;;;52.20;26.38;;;1.80;99.90;;;0.33;100.00;98133.13;5112652;28;20411;-74
2022/11/13 04:37:54;;;;;;;41.80;23.85;;;1.80;99.90;;;0.29;100.00;98130.06;5112544;28;20420;-73
2022/11/13 04:40:20;;;;;;;44.40;24.20;;;1.80;99.90;;;0.28;100.00;98132.84;5112682;28;20568;-73
2022/11/13 04:42:47;;;;;;;57.78;25.60;;;1.70;99.90;;;0.25;100.00;98120.97;5111379;28;20479;-73
2022/11/13 04:45:13;;;;;;;39.85;21.40;;;1.70;99.90;;;0.23;100.00;98124.69;5112432;28;20407;-73
2022/11/13 04:47:39;;;;;;;49.25;23.42;;;1.70;99.90;;;0.21;100.00;98117.09;5112409;28;20396;-73
2022/11/13 04:50:06;;;;;;;40.00;21.98;;;1.70;99.90;;;0.20;100.00;98114.63;5112433;28;20388;-73
2022/11/13 04:52:32;;;;;;;40.85;21.70;;;1.60;99.90;;;0.15;100.00;98120.31;5112488;28;20396;-73
2022/11/13 04:54:58;;;;;;;42.35;21.95;;;1.70;99.90;;;0.13;100.00;98121.50;5111316;28;20515;-72
2022/11/13 04:57:24;;;;;;;36.25;19.52;;;1.60;99.90;;;0.10;100.00;98119.22;5112302;28;20439;-73
2022/11/13 04:59:51;;;;;;;39.87;22.50;;;1.60;99.90;;;0.08;100.00;98111.56;5112092;28;20412;-73
2022/11/13 05:02:17;;;;;;;41.95;22.50;;;1.60;99.90;;;0.08;100.00;98108.97;5112102;28;20727;-73
2022/11/13 05:04:43;;;;;;;41.85;22.85;;;1.60;99.90;;;0.06;100.00;98108.34;5126550;27;20920;-73
2022/11/13 05:07:09;;;;;;;38.83;21.63;;;1.50;99.90;;;0.03;100.00;98106.06;5111801;28;20478;-73
2022/11/13 05:09:35;;;;;;;39.67;21.42;;;1.50;99.90;;;0.00;100.00;98096.78;5112102;28;20396;-73
2022/11/13 05:12:00;;;;;;;47.97;24.20;;;1.50;99.90;;;0.04;100.00;98099.88;5111966;28;20400;-73
2022/11/13 05:14:26;;;;;;;44.55;23.27;;;1.50;99.90;;;0.00;100.00;98096.00;5111121;28;20445;-73
2022/11/13 05:16:54;;;;;;;43.10;23.02;;;1.50;99.90;;;-0.03;100.00;98086.72;5111779;28;20396;-73
2022/11/13 05:19:19;;;;;;;42.92;23.08;;;1.50;99.90;;;-0.04;100.00;98092.09;5111679;28;20400;-73
2022/11/13 05:21:45;;;;;;;45.45;24.33;;;1.50;99.90;;;-0.04;100.00;98089.47;5111907;28;20458;-73
2022/11/13 05:24:11;;;;;;;45.75;23.63;;;1.50;99.90;;;-0.07;100.00;98087.19;5126753;27;20396;-74
2022/11/13 05:26:39;;;;;;;42.40;22.15;;;1.40;99.90;;;-0.10;100.00;98084.94;5111542;28;20761;-73
2022/11/13 05:29:05;;;;;;;39.85;21.63;;;1.40;99.90;;;-0.13;100.00;98091.28;5104817;27;20739;-72
2022/11/13 05:31:31;;;;;;;47.08;24.48;;;1.40;99.90;;;-0.08;100.00;98085.59;5110136;28;20453;-73
2022/11/13 05:33:58;;;;;;;45.78;23.15;;;1.40;99.90;;;-0.12;100.00;98082.50;5094502;28;20926;-72
2022/11/13 05:36:24;;;;;;;43.22;23.02;;;1.40;99.90;;;-0.13;100.00;98095.69;5107598;28;20411;-72
2022/11/13 05:38:50;;;;;;;41.97;22.73;;;1.30;99.90;;;-0.15;100.00;98093.25;5097510;28;20408;-72
2022/11/13 05:41:19;;;;;;;39.92;22.63;;;1.30;99.90;;;-0.15;100.00;98087.25;5101067;28;20492;-73
2022/11/13 05:43:46;;;;;;;43.72;24.98;;;1.30;99.90;;;-0.17;100.00;98084.00;5103828;28;20925;-73
2022/11/13 05:46:15;;;;;;;41.20;23.90;;;1.30;99.90;;;-0.21;100.00;98083.50;5100006;28;20412;-73
2022/11/13 05:48:42;;;;;;;40.47;23.35;;;1.30;99.90;;;-0.22;100.00;98081.06;5105983;28;20409;-73
2022/11/13 05:51:12;;;;;;;34.42;22.23;;;1.30;99.90;;;-0.23;100.00;98082.06;5099414;28;20400;-73
2022/11/13 05:53:39;;;;;;;45.10;25.27;;;1.30;99.90;;;-0.23;100.00;98082.06;5100223;28;20821;-73
2022/11/13 05:56:09;;;;;;;50.05;28.48;;;1.20;99.90;;;-0.23;100.00;98082.88;5107081;28;20483;-73
2022/11/13 05:58:35;;;;;;;45.42;25.90;;;1.30;99.90;;;-0.26;100.00;98074.56;5094629;28;20392;-73
2022/11/13 06:01:07;;;;;;;47.03;25.30;;;1.20;99.90;;;-0.28;100.00;98082.53;5102807;28;20933;-73
2022/11/13 06:03:33;;;;;;;43.50;24.83;;;1.20;99.90;;;-0.30;100.00;98079.28;5117506;27;20435;-73
2022/11/13 06:05:59;;;;;;;47.80;26.27;;;1.20;99.90;;;-0.31;100.00;98076.88;5094596;28;20444;-73
2022/11/13 06:08:26;;;;;;;47.17;26.60;;;1.20;99.90;;;-0.31;100.00;98084.69;5106947;28;20505;-72
2022/11/13 06:10:58;;;;;;;41.72;24.00;;;1.20;99.90;;;-0.34;100.00;98075.41;5097050;28;20403;-72
2022/11/13 06:13:24;;;;;;;40.35;22.88;;;1.10;99.90;;;-0.34;100.00;98083.22;5098574;28;20760;-73
2022/11/13 06:15:50;;;;;;;44.05;25.13;;;1.10;99.90;;;-0.34;100.00;98077.19;5105089;28;20407;-73
2022/11/13 06:18:22;;;;;;;44.80;25.23;;;1.10;99.90;;;-0.37;100.00;98078.31;5093359;28;20402;-72
2022/11/13 06:20:47;;;;;;;43.83;24.70;;;1.10;99.90;;;-0.38;100.00;98081.09;5104843;28;20467;-72
2022/11/13 06:23:13;;;;;;;46.97;27.35;;;1.10;99.90;;;-0.38;100.00;98084.53;5100324;28;20400;-73
2022/11/13 06:25:41;;;;;;;45.53;25.58;;;1.10;99.90;;;-0.40;100.00;98078.66;5096958;28;20401;-72
2022/11/13 06:28:07;;;;;;;40.08;24.55;;;1.10;99.90;;;-0.33;100.00;98077.03;5106662;28;20470;-72
2022/11/13 06:30:32;;;;;;;51.90;28.70;;;1.10;99.90;;;-0.25;100.00;98076.19;5093721;28;20491;-73
2022/11/13 06:32:59;;;;;;;50.57;28.23;;;1.20;99.90;;;-0.17;100.00;98073.59;5114199;27;20402;-72
2022/11/13 06:35:25;;;;;;;39.60;24.20;;;1.20;99.90;;;-0.11;100.00;98067.72;5119389;27;20454;-73
2022/11/13 06:37:52;;;;;;;43.63;25.10;;;1.30;99.90;;;-0.04;100.00;98061.69;5096510;28;20410;-74
2022/11/13 06:40:18;;;;;;;50.83;27.23;;;1.40;99.90;;;0.06;100.00;98064.09;5098191;28;20417;-72
2022/11/13 06:42:45;;;;;;;48.40;27.87;;;1.50;99.90;;;0.14;100.00;98068.47;5105386;28;20449;-73
2022/11/13 06:45:11;;;;;;;40.10;25.00;;;1.60;99.90;;;0.21;100.00;98059.81;5098880;28;20472;-72
2022/11/13 06:47:37;;;;;;;44.47;25.58;;;1.60;99.90;;;0.27;100.00;98055.72;5115787;27;20412;-73
2022/11/13 06:50:05;;;;;;;48.10;26.88;;;1.70;99.90;;;0.32;100.00;98050.78;5097739;28;20428;-73
2022/11/13 06:52:31;;;;;;;44.47;26.63;;;1.70;99.90;;;0.39;100.00;98042.13;5101713;28;20424;-73
2022/11/13 06:54:58;;;;;;;57.85;29.58;;;1.80;99.90;;;0.44;100.00;98039.03;5102515;28;20409;-73
2022/11/13 06:57:24;;;;;;;59.20;29.73;;;1.80;99.90;;;0.48;100.00;98048.13;5109073;28;20397;-73
2022/11/13 06:59:52;;;;;;;51.77;27.13;;;1.90;99.90;;;0.49;100.00;98036.72;5109265;28;20831;-72
2022/11/13 07:02:18;;;;;;;55.38;27.92;;;1.90;99.90;;;0.51;100.00;98039.16;5089352;28;20928;-71
2022/11/13 07:04:44;;;;;;;56.03;28.92;;;1.90;99.90;;;0.52;100.00;98046.00;5105096;28;20400;-71
2022/11/13 07:07:10;;;;;;;54.20;28.88;;;1.90;99.90;;;0.51;100.00;98037.38;5114026;28;20408;-72
2022/11/13 07:09:35;;;;;;;65.65;32.42;;;1.90;99.90;;;0.52;100.00;98035.56;5112761;28;20392;-72
2022/11/13 07:12:01;;;;;;;49.63;28.42;;;1.90;99.90;;;0.51;100.00;98037.38;5113143;28;20400;-72
2022/11/13 07:14:27;;;;;;;71.72;32.72;;;1.90;99.90;;;0.52;100.00;98030.38;5110485;28;20411;-73
2022/11/13 07:16:55;;;;;;;65.93;30.55;;;1.90;99.90;;;0.50;100.00;98024.50;5113622;28;20542;-72
2022/11/13 07:19:20;;;;;;;66.85;31.73;;;1.90;99.90;;;0.50;100.00;98017.50;5113924;28;20896;-72
2022/11/13 07:21:46;;;;;;;61.95;31.33;;;1.90;99.90;;;0.50;100.00;98017.50;5113935;28;20404;-72
2022/11/13 07:24:12;;;;;;;51.50;28.83;;;1.90;99.90;;;0.50;100.00;98020.13;5112655;28;20407;-72
2022/11/13 07:26:38;;;;;;;61.70;30.13;;;1.90;99.90;;;0.50;100.00;98017.50;5124609;27;20421;-73
2022/11/13 07:29:04;;;;;;;66.57;31.20;;;1.90;99.90;;;0.50;100.00;98027.94;5101464;28;20398;-73
2022/11/13 07:31:30;;;;;;;66.53;31.92;;;1.90;99.90;;;0.51;100.00;98034.75;5091806;28;20500;-72
2022/11/13 07:33:57;;;;;;;55.67;29.92;;;1.90;99.90;;;0.52;100.00;98020.75;5092471;28;20474;-72
2022/11/13 07:36:23;;;;;;;68.53;32.20;;;1.90;99.90;;;0.55;100.00;98016.97;5093240;28;20390;-72
2022/11/13 07:38:51;;;;;;;69.15;34.28;;;1.90;99.90;;;0.63;100.00;98015.13;5092575;28;20546;-71
2022/11/13 07:41:17;;;;;;;76.43;35.00;;;2.00;99.90;;;0.71;100.00;98016.88;5092635;28;20417;-72
2022/11/13 07:43:43;;;;;;;72.40;35.40;;;2.10;99.90;;;0.76;100.00;98010.16;5093374;28;20530;-71
2022/11/13 07:46:09;;;;;;;85.13;37.58;;;2.20;99.90;;;0.80;100.00;98005.44;5112821;28;20449;-72
2022/11/13 07:48:35;;;;;;;77.67;34.97;;;2.20;99.90;;;0.83;100.00;98005.06;5136295;27;20414;-71
2022/11/13 07:51:03;;;;;;;80.63;38.85;;;2.20;99.90;;;0.81;100.00;97996.63;5133638;27;20399;-71
2022/11/13 07:53:29;;;;;;;75.45;35.47;;;2.20;99.90;;;0.81;100.00;97983.59;5132529;27;20434;-71
2022/11/13 07:55:55;;;;;;;75.70;35.78;;;2.20;99.90;;;0.83;100.00;97999.06;5133232;27;20539;-72
2022/11/13 07:58:21;;;;;;;82.78;37.58;;;2.20;99.90;;;0.85;100.00;97990.06;5149435;27;20813;-71
2022/11/13 08:00:47;;;;;;;76.18;37.35;;;2.20;99.90;;;0.89;100.00;97990.53;5133194;27;20459;-72
2022/11/13 08:03:15;;;;;;;84.53;39.40;;;2.20;99.90;;;0.92;100.00;97984.97;5132359;27;20403;-71
2022/11/13 08:05:42;;;;;;;82.93;38.50;;;2.30;99.90;;;0.96;100.00;97981.84;5133258;27;20390;-72
2022/11/13 08:08:11;;;;;;;94.95;41.22;;;2.30;99.90;;;1.01;100.00;97983.91;5116106;22;20445;-74
2022/11/13 08:10:37;;;;;;;91.30;41.17;;;2.30;99.90;;;1.06;100.00;97985.00;5085713;28;20415;-74
2022/11/13 08:13:07;;;;;;;105.57;42.80;;;2.40;99.90;;;1.09;100.00;97983.84;5087958;28;20409;-73
2022/11/13 08:15:33;;;;;;;106.60;42.75;;;2.40;99.90;;;1.11;100.00;97982.69;5083679;28;20424;-75
2022/11/13 08:18:01;;;;;;;109.95;45.00;;;2.40;99.90;;;1.13;100.00;97980.69;5070366;28;20506;-75
2022/11/13 08:20:33;;;;;;;114.55;45.90;;;2.50;99.90;;;1.14;100.00;97973.69;5052900;28;20844;-75
2022/11/13 08:23:01;;;;;;;110.80;45.60;;;2.50;99.90;;;1.14;100.00;97973.69;5069664;28;20439;-76
2022/11/13 08:25:30;;;;;;;91.25;41.17;;;2.50;99.90;;;1.17;100.00;97978.56;5071486;28;20485;-75
2022/11/13 08:27:56;;;;;;;85.15;40.75;;;2.50;99.90;;;1.20;100.00;97974.81;5071526;28;20533;-74
2022/11/13 08:30:25;;;;;;;98.22;44.20;;;2.50;99.90;;;1.26;100.00;97974.09;5071835;28;20392;-75
2022/11/13 08:32:51;;;;;;;91.65;41.25;;;2.60;99.90;;;1.33;100.00;97968.00;5071093;28;20399;-75
2022/11/13 08:35:18;;;;;;;91.32;41.97;;;2.60;99.90;;;1.43;100.00;97960.69;5071107;28;20416;-75
2022/11/13 08:37:44;;;;;;;97.65;41.95;;;2.70;99.90;;;1.56;100.00;97954.88;5071342;28;20852;-76
2022/11/13 08:40:11;;;;;;;84.15;39.55;;;2.80;99.90;;;1.70;100.00;97951.44;5070411;28;20415;-76
2022/11/13 08:42:40;;;;;;;83.95;38.90;;;3.00;99.90;;;1.82;100.00;97943.97;5051265;28;20786;-76
2022/11/13 08:45:08;;;;;;;109.07;44.63;;;3.10;99.90;;;1.95;100.00;97952.75;5050974;28;20401;-76
2022/11/13 08:47:34;;;;;;;91.20;41.30;;;3.20;99.90;;;2.08;100.00;97948.69;5051585;28;20413;-76
2022/11/13 08:49:59;;;;;;;80.75;37.47;;;3.30;99.90;;;2.21;100.00;97939.22;5070684;28;20406;-76
2022/11/13 08:52:25;;;;;;;76.70;36.37;;;3.50;99.90;;;2.30;100.00;97948.56;5071671;28;20411;-76
2022/11/13 08:54:51;;;;;;;62.20;32.25;;;3.50;99.90;;;2.41;100.00;97941.22;5070549;28;20506;-76
2022/11/13 08:57:17;;;;;;;72.25;33.97;;;3.60;99.90;;;2.48;100.00;97939.50;5071598;28;20487;-75
2022/11/13 08:59:44;;;;;;;79.55;35.05;;;3.70;99.90;;;2.56;100.00;97941.97;5071453;28;20431;-76
2022/11/13 09:02:13;;;;;;;70.25;32.85;;;3.80;99.90;;;2.64;100.00;97952.28;5068391;28;20417;-77
2022/11/13 09:04:40;;;;;;;60.00;30.75;;;3.80;99.90;;;2.71;100.00;97940.09;5067667;28;20548;-76
2022/11/13 09:07:06;;;;;;;55.95;28.35;;;3.90;99.90;;;2.82;100.00;97950.06;5071097;28;20407;-77
2022/11/13 09:09:33;;;;;;;55.92;27.70;;;4.00;99.90;;;2.92;100.00;97944.53;5071083;28;20392;-76
2022/11/13 09:11:59;;;;;;;74.55;30.48;;;4.10;99.90;;;3.01;100.00;97935.53;5071120;28;20485;-76
2022/11/13 09:14:26;;;;;;;49.95;25.58;;;4.20;99.90;;;3.13;100.00;97936.63;5070333;28;20404;-76
2022/11/13 09:16:54;;;;;;;47.03;24.08;;;4.30;99.90;;;3.30;100.00;97939.78;5080971;22;20422;-76
2022/11/13 09:19:20;;;;;;;47.67;23.95;;;4.40;99.90;;;3.49;100.00;97939.91;5111496;28;20464;-76
2022/11/13 09:21:46;;;;;;;44.63;23.13;;;4.60;99.90;;;3.71;100.00;97942.44;5111405;28;20491;-75
2022/11/13 09:24:12;;;;;;;46.63;23.38;;;4.80;99.90;;;3.91;100.00;97938.09;5110679;28;20400;-76
2022/11/13 09:26:38;;;;;;;50.92;23.40;;;5.00;99.90;;;4.10;100.00;97942.59;5111358;28;20484;-76
2022/11/13 09:29:04;;;;;;;32.47;17.50;;;5.20;99.90;;;4.32;100.00;97939.84;5110199;28;20392;-76
2022/11/13 09:31:30;;;;;;;25.92;15.13;;;5.40;99.90;;;4.47;100.00;97935.25;5111656;28;20392;-76
2022/11/13 09:33:58;;;;;;;15.90;11.82;;;5.60;99.90;;;4.68;100.00;97929.84;5110631;28;20409;-75
2022/11/13 09:36:23;;;;;;;13.13;10.23;;;5.80;99.90;;;4.86;100.00;97930.06;5111448;28;20439;-75
2022/11/13 09:38:49;;;;;;;11.63;9.02;;;5.90;99.90;;;5.13;100.00;97925.63;5110082;28;20412;-75
2022/11/13 09:41:19;;;;;;;10.40;8.40;;;6.10;99.90;;;5.48;100.00;97920.94;5109974;28;20412;-75
2022/11/13 09:43:49;;;;;;;10.17;7.67;;;6.40;99.90;;;5.97;100.00;97927.47;5110427;28;20403;-75
2022/11/13 09:46:20;;;;;;;10.57;7.90;;;6.80;99.90;;;6.49;100.00;97927.22;5111114;28;20838;-76
2022/11/13 09:48:51;;;;;;;10.80;8.23;;;7.20;99.90;;;6.90;100.00;97918.88;5109921;28;20396;-76
2022/11/13 09:51:24;;;;;;;9.50;7.15;;;7.70;99.90;;;7.32;100.00;97919.91;5111217;28;20397;-76
2022/11/13 09:53:51;;;;;;;8.88;7.00;;;8.20;99.90;;;7.66;100.00;97920.41;5110418;28;20404;-76
2022/11/13 09:56:31;;;;;;;10.65;7.80;;;8.60;99.90;;;8.05;100.00;97921.75;5111024;28;20408;-76
2022/11/13 09:59:06;;;;;;;9.90;6.68;;;9.00;99.90;;;8.49;100.00;97920.63;5111173;28;20431;-76
2022/11/13 10:01:47;;;;;;;7.38;5.90;;;9.40;99.90;;;8.90;100.00;97922.44;5111017;28;20416;-76
2022/11/13 10:04:21;;;;;;;6.50;5.15;;;9.90;99.90;;;9.49;100.00;97920.63;5110246;28;20407;-77
2022/11/13 10:07:04;;;;;;;7.95;6.15;;;10.40;99.90;;;10.01;100.00;97922.28;5110843;28;20434;-77
2022/11/13 10:09:40;;;;;;;7.78;5.72;;;10.90;99.90;;;10.58;100.00;97919.72;5111019;28;20392;-77
2022/11/13 10:12:08;;;;;;;8.38;6.38;;;11.50;99.90;;;10.98;100.00;97908.19;5110956;27;20392;-76